Springfield Beckley Municipal Airport
KSGH : now visible

Aeroporto :











RITROVATECI SU...

 
LOGIN :

Iscrizione | Disclaimer

   EN    FR    IT 

 









Sommario :    VFR   VFR Marginale   IFR   IFR Intensivo   IFR Molto Intensivo
Visibilità : 
Base nubi : 
>= 8 km
>= 3000ft
5 / 8 km
1000 / 3000 ft
1500m / 5 km
500 / 1000 ft
800 / 1500m
200 / 500 ft
< 800m
< 200 ft
Simboli :   Temporali  Nebbia  Neve Forte  Precipitazioni Forti  Vento > 20 kt






- Altitudine del aeroporto : 1051 ft


KSGH - Springfield Beckley Municipal

ULTIMO METAR :
  • 140856Z AUTO 21008KT 10SM BKN090 OVC100 M02/M06 A3016 RMK AO2 SLP227 6//// T10221056 52002 PNO $

METARs OBSOLETI :
  • 140756Z AUTO 20005KT 10SM SCT120 M03/M06 A3015 RMK AO2 SLP225 T10281056 PNO $
  • 140656Z AUTO 20004KT 10SM CLR M04/M07 A3016 RMK AO2 SLP228 T10391067 PNO $

TAF N/A



MetMap, La meteo Aeronautica in un colpo d'occhio ! - Copyright ORBIFLY Dicembre 2007 - Disclaimer

ORBIFLY MET'MAP TEAM :

Programmazione e sviluppo : Alexandra Zaïnal
Concezione e sviluppo : Baudouin d'Aumeries
Co-Programmazione e sviluppo : Marc-Olivier Méhu
Supporto tecnico e logistico : Manuel Goepfert
Aiuto per la traduzione : Arnaldo La Scala

Contatto : metmap@orbifly.com




FONTI E CREDITI :

   NOAA       Earth
Advisory